This is the latest recevied weather packets stored in our database for station/object KC7KGF. If no packets are shown the sender has not sent any weather packets the latest 10 day(s).
| Time | Temp. | Humidity | Pressure | Rain* | Wind** | Luminosity | Snow |
|---|---|---|---|---|---|---|---|
| 1777703733 | 15° C | 32% | 1020.7 hPa | 0 mm | - | - | - |
| 1777701941 | 15.56° C | 32% | 1020.5 hPa | 0 mm | - | - | - |
| 1777700139 | 15.56° C | 32% | 1020.3 hPa | 0 mm | - | - | - |
| 1777698327 | 15° C | 35% | 1020 hPa | 0 mm | - | - | - |
| 1777696528 | 15° C | 32% | 1019.7 hPa | 0 mm | - | - | - |
| 1777694733 | 15.56° C | 32% | 1018.9 hPa | 0 mm | - | - | - |
| 1777692929 | 16.67° C | 30% | 1018.4 hPa | 0 mm | - | - | - |
| 1777691144 | 16.11° C | 31% | 1017.9 hPa | 0 mm | - | - | - |
| 1777689344 | 17.78° C | 29% | 1017.2 hPa | 0 mm | - | - | - |
| 1777687536 | 18.89° C | 27% | 1016.8 hPa | 0 mm | - | - | - |
| 1777685736 | 19.44° C | 26% | 1016.3 hPa | 0 mm | - | - | - |
| 1777683927 | 20.56° C | 24% | 1015.9 hPa | 0 mm | - | - | - |
| 1777682127 | 21.11° C | 22% | 1015.8 hPa | 0 mm | - | - | - |
| 1777680339 | 22.22° C | 20% | 1015.6 hPa | 0 mm | - | - | - |
| 1777678538 | 22.22° C | 20% | 1015.4 hPa | 0 mm | - | - | - |
| 1777676729 | 22.78° C | 19% | 1015.6 hPa | 0 mm | - | - | - |
| 1777674928 | 21.67° C | 22% | 1015.9 hPa | 0 mm | - | - | - |
| 1777673140 | 23.33° C | 17% | 1015.8 hPa | 0 mm | - | - | - |
| 1777671338 | 23.89° C | 16% | 1015.9 hPa | 0 mm | - | - | - |
| 1777669529 | 23.89° C | 16% | 1016.4 hPa | 0 mm | - | - | - |
| 1777667734 | 23.33° C | 16% | 1016.5 hPa | 0 mm | - | - | - |
| 1777665945 | 23.89° C | 16% | 1016.7 hPa | 0 mm | - | - | - |
| 1777664144 | 23.33° C | 17% | 1016.8 hPa | 0 mm | - | - | - |
| 1777662335 | 22.78° C | 16% | 1017.1 hPa | 0 mm | - | - | - |
| 1777660535 | 22.22° C | 17% | 1017.4 hPa | 0 mm | - | - | - |
* Rain latest hour (hover to see other rain measurements)
** Current wind speed in m/s (hover to see current wind gust speed)